N312YH KSAN-KLAX
Flight info
| Callsign | N312YH |
|---|---|
| Flight time | 0h 25m |
| Altitude | 10000 |
| Route | CWARD2 SLI |
| Aircraft | C25C/M-SDE2E3FGHRWXY/LB1 |
Departure
| Time | 2026-05-04 02:41 |
|---|---|
| Airport | San Diego International Airport (KSAN) |
Arrival
| Time | 2026-05-04 03:07 |
|---|---|
| Airport | Los Angeles International Airport (KLAX) |
| Time | Latitude | Longitude | Altitude | Speed | Heading |
|---|---|---|---|---|---|
| 2026-05-04 02:22 | 32.73424 | -117.17950 | 20 ft | 0 kts | 145° |
| 2026-05-04 02:31 | 32.73361 | -117.17959 | 20 ft | 17 kts | 186° |
| 2026-05-04 02:32 | 32.73250 | -117.17982 | 16 ft | 14 kts | 168° |
| 2026-05-04 02:32 | 32.73202 | -117.17858 | 16 ft | 20 kts | 107° |
| 2026-05-04 02:32 | 32.73163 | -117.17697 | 17 ft | 21 kts | 106° |
| 2026-05-04 02:32 | 32.73111 | -117.17566 | 16 ft | 12 kts | 144° |
| 2026-05-04 02:33 | 32.73099 | -117.17556 | 16 ft | 0 kts | 144° |
| 2026-05-04 02:39 | 32.73067 | -117.17532 | 16 ft | 11 kts | 158° |
| 2026-05-04 02:39 | 32.73018 | -117.17571 | 17 ft | 11 kts | 272° |
| 2026-05-04 02:40 | 32.73035 | -117.17647 | 15 ft | 0 kts | 287° |
| 2026-05-04 02:41 | 32.73128 | -117.18029 | 14 ft | 108 kts | 286° |
| 2026-05-04 02:41 | 32.73422 | -117.19224 | 407 ft | 185 kts | 286° |
| 2026-05-04 02:41 | 32.73919 | -117.20743 | 1664 ft | 212 kts | 299° |
| 2026-05-04 02:41 | 32.74799 | -117.22236 | 2968 ft | 227 kts | 303° |
| 2026-05-04 02:42 | 32.75683 | -117.23827 | 4249 ft | 233 kts | 301° |
| 2026-05-04 02:42 | 32.76488 | -117.25341 | 5248 ft | 207 kts | 300° |
| 2026-05-04 02:42 | 32.77219 | -117.26725 | 6087 ft | 188 kts | 299° |
| 2026-05-04 02:42 | 32.77947 | -117.28109 | 6878 ft | 209 kts | 298° |
| 2026-05-04 02:43 | 32.78758 | -117.29640 | 7820 ft | 227 kts | 298° |
| 2026-05-04 02:43 | 32.79624 | -117.31273 | 8893 ft | 238 kts | 298° |
| 2026-05-04 02:43 | 32.80650 | -117.32912 | 9831 ft | 260 kts | 303° |
| 2026-05-04 02:43 | 32.81832 | -117.34743 | 10007 ft | 300 kts | 302° |
| 2026-05-04 02:44 | 32.83159 | -117.36815 | 10003 ft | 318 kts | 303° |
| 2026-05-04 02:44 | 32.84503 | -117.38886 | 10003 ft | 318 kts | 303° |
| 2026-05-04 02:44 | 32.85858 | -117.40981 | 9998 ft | 322 kts | 303° |
| 2026-05-04 02:44 | 32.87222 | -117.43104 | 10000 ft | 325 kts | 303° |
| 2026-05-04 02:45 | 32.88601 | -117.45244 | 9997 ft | 325 kts | 303° |
| 2026-05-04 02:45 | 32.89963 | -117.47363 | 9985 ft | 319 kts | 303° |
| 2026-05-04 02:45 | 32.91288 | -117.49414 | 9989 ft | 315 kts | 303° |
| 2026-05-04 02:45 | 32.92617 | -117.51493 | 9984 ft | 316 kts | 303° |
| 2026-05-04 02:46 | 32.93942 | -117.53550 | 9984 ft | 316 kts | 303° |
| 2026-05-04 02:46 | 32.95311 | -117.55690 | 9986 ft | 316 kts | 303° |
| 2026-05-04 02:46 | 32.96637 | -117.57751 | 9984 ft | 316 kts | 303° |
| 2026-05-04 02:46 | 32.97974 | -117.59839 | 9982 ft | 317 kts | 303° |
| 2026-05-04 02:47 | 32.99310 | -117.61923 | 9985 ft | 317 kts | 303° |
| 2026-05-04 02:47 | 33.00647 | -117.64011 | 9982 ft | 317 kts | 303° |
| 2026-05-04 02:47 | 33.01985 | -117.66102 | 9982 ft | 317 kts | 303° |
| 2026-05-04 02:47 | 33.03324 | -117.68191 | 9983 ft | 317 kts | 303° |
| 2026-05-04 02:48 | 33.04661 | -117.70288 | 9982 ft | 317 kts | 303° |
| 2026-05-04 02:48 | 33.06006 | -117.72381 | 9981 ft | 318 kts | 304° |
| 2026-05-04 02:48 | 33.07605 | -117.74231 | 9977 ft | 322 kts | 317° |
| 2026-05-04 02:48 | 33.09329 | -117.75945 | 9979 ft | 322 kts | 315° |
| 2026-05-04 02:49 | 33.11014 | -117.77657 | 9978 ft | 322 kts | 316° |
| 2026-05-04 02:49 | 33.12715 | -117.79399 | 9984 ft | 322 kts | 315° |
| 2026-05-04 02:49 | 33.14424 | -117.81134 | 9992 ft | 322 kts | 316° |
| 2026-05-04 02:49 | 33.16129 | -117.82873 | 9994 ft | 322 kts | 316° |
| 2026-05-04 02:50 | 33.17841 | -117.84611 | 9994 ft | 322 kts | 316° |
| 2026-05-04 02:50 | 33.19700 | -117.86118 | 9988 ft | 329 kts | 334° |
| 2026-05-04 02:50 | 33.21920 | -117.86852 | 9991 ft | 332 kts | 343° |
| 2026-05-04 02:50 | 33.24180 | -117.87441 | 9990 ft | 333 kts | 346° |
| 2026-05-04 02:51 | 33.26462 | -117.87946 | 9992 ft | 333 kts | 346° |
| 2026-05-04 02:51 | 33.28722 | -117.88548 | 9994 ft | 332 kts | 341° |
| 2026-05-04 02:51 | 33.30923 | -117.89382 | 9910 ft | 331 kts | 338° |
| 2026-05-04 02:51 | 33.33094 | -117.90179 | 9566 ft | 323 kts | 340° |
| 2026-05-04 02:52 | 33.35243 | -117.90884 | 9177 ft | 318 kts | 341° |
| 2026-05-04 02:52 | 33.37362 | -117.91578 | 8796 ft | 313 kts | 341° |
| 2026-05-04 02:52 | 33.39427 | -117.92272 | 8380 ft | 311 kts | 341° |
| 2026-05-04 02:52 | 33.41503 | -117.92986 | 7954 ft | 310 kts | 341° |
| 2026-05-04 02:53 | 33.43508 | -117.93656 | 7572 ft | 285 kts | 341° |
| 2026-05-04 02:53 | 33.45368 | -117.94286 | 7197 ft | 272 kts | 341° |
| 2026-05-04 02:53 | 33.47132 | -117.94879 | 7041 ft | 255 kts | 341° |
| 2026-05-04 02:53 | 33.48786 | -117.95442 | 7002 ft | 244 kts | 341° |
| 2026-05-04 02:54 | 33.50446 | -117.96007 | 6997 ft | 251 kts | 341° |
| 2026-05-04 02:54 | 33.52143 | -117.96581 | 7004 ft | 252 kts | 341° |
| 2026-05-04 02:54 | 33.53779 | -117.97133 | 6990 ft | 237 kts | 341° |
| 2026-05-04 02:54 | 33.55327 | -117.97655 | 6997 ft | 233 kts | 341° |
| 2026-05-04 02:55 | 33.58424 | -117.98710 | 6983 ft | 229 kts | 341° |
| 2026-05-04 02:55 | 33.59982 | -117.99237 | 6979 ft | 233 kts | 341° |
| 2026-05-04 02:55 | 33.61541 | -117.99767 | 6978 ft | 232 kts | 341° |
| 2026-05-04 02:56 | 33.63093 | -118.00293 | 6978 ft | 232 kts | 341° |
| 2026-05-04 02:56 | 33.64656 | -118.00823 | 6980 ft | 234 kts | 341° |
| 2026-05-04 02:56 | 33.66221 | -118.01355 | 6976 ft | 233 kts | 341° |
| 2026-05-04 02:56 | 33.67777 | -118.01884 | 6950 ft | 232 kts | 341° |
| 2026-05-04 02:57 | 33.69329 | -118.02410 | 6944 ft | 232 kts | 340° |
| 2026-05-04 02:57 | 33.70889 | -118.02943 | 6945 ft | 234 kts | 341° |
| 2026-05-04 02:57 | 33.72461 | -118.03476 | 6948 ft | 235 kts | 341° |
| 2026-05-04 02:57 | 33.74036 | -118.04013 | 6948 ft | 236 kts | 341° |
| 2026-05-04 02:58 | 33.75615 | -118.04549 | 6947 ft | 236 kts | 341° |
| 2026-05-04 02:58 | 33.77196 | -118.05084 | 6953 ft | 236 kts | 342° |
| 2026-05-04 02:58 | 33.78854 | -118.05196 | 6830 ft | 244 kts | 360° |
| 2026-05-04 02:58 | 33.80598 | -118.05077 | 6462 ft | 255 kts | 1° |
| 2026-05-04 02:59 | 33.82288 | -118.04929 | 6069 ft | 237 kts | 2° |
| 2026-05-04 02:59 | 33.83899 | -118.04790 | 5658 ft | 228 kts | 1° |
| 2026-05-04 02:59 | 33.85474 | -118.04664 | 5272 ft | 226 kts | 1° |
| 2026-05-04 02:59 | 33.87052 | -118.04559 | 5023 ft | 221 kts | 1° |
| 2026-05-04 03:00 | 33.88565 | -118.04473 | 4978 ft | 216 kts | 1° |
| 2026-05-04 03:00 | 33.90077 | -118.04396 | 4970 ft | 219 kts | 1° |
| 2026-05-04 03:00 | 33.91622 | -118.04323 | 4967 ft | 224 kts | 1° |
| 2026-05-04 03:00 | 33.93071 | -118.04898 | 4942 ft | 226 kts | 316° |
| 2026-05-04 03:01 | 33.93858 | -118.06498 | 4826 ft | 232 kts | 294° |
| 2026-05-04 03:01 | 33.94519 | -118.08316 | 4519 ft | 241 kts | 292° |
| 2026-05-04 03:01 | 33.95160 | -118.10184 | 4125 ft | 238 kts | 291° |
| 2026-05-04 03:01 | 33.95785 | -118.12002 | 3800 ft | 230 kts | 291° |
| 2026-05-04 03:02 | 33.96130 | -118.13801 | 3704 ft | 215 kts | 272° |
| 2026-05-04 03:02 | 33.96055 | -118.15554 | 3672 ft | 205 kts | 263° |
| 2026-05-04 03:02 | 33.95875 | -118.17260 | 3376 ft | 205 kts | 262° |
| 2026-05-04 03:02 | 33.95692 | -118.18854 | 3264 ft | 178 kts | 262° |
| 2026-05-04 03:03 | 33.95569 | -118.20325 | 3245 ft | 180 kts | 264° |
| 2026-05-04 03:03 | 33.95480 | -118.21707 | 3424 ft | 179 kts | 265° |
| 2026-05-04 03:03 | 33.95330 | -118.23261 | 3314 ft | 192 kts | 261° |
| 2026-05-04 03:03 | 33.95098 | -118.24872 | 3105 ft | 200 kts | 260° |
| 2026-05-04 03:04 | 33.94907 | -118.26562 | 2736 ft | 201 kts | 263° |
| 2026-05-04 03:04 | 33.94749 | -118.28178 | 2303 ft | 189 kts | 262° |
| 2026-05-04 03:04 | 33.94600 | -118.29690 | 1946 ft | 162 kts | 264° |
| 2026-05-04 03:04 | 33.94484 | -118.30924 | 1634 ft | 141 kts | 262° |
| 2026-05-04 03:05 | 33.94405 | -118.31682 | 1391 ft | 136 kts | 262° |
| 2026-05-04 03:05 | 33.94266 | -118.33122 | 1008 ft | 120 kts | 263° |
| 2026-05-04 03:05 | 33.94196 | -118.33770 | 890 ft | 116 kts | 263° |
| 2026-05-04 03:05 | 33.94056 | -118.35068 | 704 ft | 116 kts | 263° |
| 2026-05-04 03:06 | 33.93962 | -118.36051 | 524 ft | 118 kts | 262° |
| 2026-05-04 03:06 | 33.93900 | -118.36699 | 440 ft | 112 kts | 264° |
| 2026-05-04 03:06 | 33.93802 | -118.37627 | 271 ft | 111 kts | 264° |
| 2026-05-04 03:06 | 33.93711 | -118.38531 | 132 ft | 102 kts | 264° |
| 2026-05-04 03:07 | 33.93640 | -118.39221 | 119 ft | 54 kts | 263° |
| 2026-05-04 03:07 | 33.93607 | -118.39369 | 119 ft | 7 kts | 191° |
| 2026-05-04 03:07 | 33.93552 | -118.39372 | 119 ft | 9 kts | 181° |
| 2026-05-04 03:07 | 33.93518 | -118.39376 | 119 ft | 0 kts | 204° |
| 2026-05-04 03:08 | 33.93458 | -118.39388 | 119 ft | 12 kts | 179° |
| 2026-05-04 03:09 | 33.93410 | -118.39455 | 119 ft | 12 kts | 253° |
| 2026-05-04 03:09 | 33.93379 | -118.39471 | 119 ft | 3 kts | 89° |
| 2026-05-04 03:11 | 33.93379 | -118.39470 | 119 ft | 0 kts | 89° |